チュニス の空港の天気 - METARとTAF

チュニス・カルタゴ国際空港 ( DTTA / TUN ) - チュニジア チュニス
飛行場実況気象(Metar)
観測時間12/14 07:00 CET (12/14 06:00 UTC)
風向・風速南南西 3m/s
視程10km以上
天気現象
全天の4割程度の雲 雲底高度 790m
全天の4割程度の雲 雲底高度 1220m
気温13℃
湿度62%
気圧1006hPa
METARDTTA 140600Z 21006KT 9999 SCT026 SCT040 13/06 Q1006 NOSIG
過去の天気等 Google飛行場航空写真 Wunderground天気予報

過去48時間のMETAR

飛行場予報(TAF)
発表時間: 12/14 06:50 CET (12/14 05:50 UTC)
予報対象時間: 14日7時 CET ~ 15日7時 CET
風向・風速南西 4m/s
視程10km以上
全天の4割程度の雲 雲底高度 790m
全天の4割程度の雲 雲底高度 1220m
14日11時 CET ~ 14日13時 CET に徐々に
風向・風速西北西 7m/s
視程10km以上
全天の4割程度の雲 雲底高度 610m
全天の8割程度の雲 雲底高度 790m
14日15時 CET ~ 15日7時 CET に一時的に
風向・風速北北西 9m/s 瞬間風速 15m/s
視程3000m
天気現象雷雨
全天の4割程度の積乱雲 雲底高度 910m
TAF DTTA 140550Z 1406/1506 23008KT 9999 SCT026 SCT040
BECMG 1410/1412 30014KT 9999 SCT020 BKN026
TEMPO 1414/1506 33017G30KT 3000 TSRA SCT030CB